sensor_id;sensor_type;location;lat;lon;timestamp;P1;durP1;ratioP1;P2;durP2;ratioP2
18503;SDS011;9381;54.244;10.074;2023-08-31T00:02:22;18.33;;;16.43;;
18503;SDS011;9381;54.244;10.074;2023-08-31T00:07:22;19.10;;;17.20;;
18503;SDS011;9381;54.244;10.074;2023-08-31T00:12:22;17.73;;;16.00;;
18503;SDS011;9381;54.244;10.074;2023-08-31T00:17:23;21.73;;;19.52;;
18503;SDS011;9381;54.244;10.074;2023-08-31T00:22:23;22.20;;;19.85;;
18503;SDS011;9381;54.244;10.074;2023-08-31T00:27:24;26.03;;;22.80;;
18503;SDS011;9381;54.244;10.074;2023-08-31T00:32:24;26.63;;;23.17;;
18503;SDS011;9381;54.244;10.074;2023-08-31T00:37:24;28.25;;;25.25;;
18503;SDS011;9381;54.244;10.074;2023-08-31T00:42:25;26.55;;;23.75;;
18503;SDS011;9381;54.244;10.074;2023-08-31T00:47:25;27.43;;;24.50;;
18503;SDS011;9381;54.244;10.074;2023-08-31T00:52:26;29.40;;;26.17;;
18503;SDS011;9381;54.244;10.074;2023-08-31T00:57:27;31.37;;;26.00;;
18503;SDS011;9381;54.244;10.074;2023-08-31T01:07:44;25.00;;;22.40;;
18503;SDS011;9381;54.244;10.074;2023-08-31T01:13:07;22.87;;;20.43;;
18503;SDS011;9381;54.244;10.074;2023-08-31T01:18:22;19.73;;;17.63;;
18503;SDS011;9381;54.244;10.074;2023-08-31T01:23:27;20.97;;;18.77;;
18503;SDS011;9381;54.244;10.074;2023-08-31T01:28:33;19.37;;;17.27;;
18503;SDS011;9381;54.244;10.074;2023-08-31T01:33:36;19.87;;;17.77;;
18503;SDS011;9381;54.244;10.074;2023-08-31T01:38:37;19.33;;;16.47;;
18503;SDS011;9381;54.244;10.074;2023-08-31T01:43:41;19.47;;;17.43;;
18503;SDS011;9381;54.244;10.074;2023-08-31T01:48:43;18.47;;;16.57;;
18503;SDS011;9381;54.244;10.074;2023-08-31T01:53:43;19.70;;;16.97;;
18503;SDS011;9381;54.244;10.074;2023-08-31T01:58:44;19.67;;;17.30;;
18503;SDS011;9381;54.244;10.074;2023-08-31T02:03:44;20.17;;;16.63;;
18503;SDS011;9381;54.244;10.074;2023-08-31T02:08:45;22.10;;;17.70;;
18503;SDS011;9381;54.244;10.074;2023-08-31T02:13:47;17.83;;;15.93;;
18503;SDS011;9381;54.244;10.074;2023-08-31T02:18:47;16.60;;;14.90;;
18503;SDS011;9381;54.244;10.074;2023-08-31T02:23:48;19.65;;;16.65;;
18503;SDS011;9381;54.244;10.074;2023-08-31T02:28:48;17.00;;;15.20;;
18503;SDS011;9381;54.244;10.074;2023-08-31T02:33:48;18.10;;;16.30;;
18503;SDS011;9381;54.244;10.074;2023-08-31T02:38:49;21.30;;;16.67;;
18503;SDS011;9381;54.244;10.074;2023-08-31T02:43:50;19.07;;;16.77;;
18503;SDS011;9381;54.244;10.074;2023-08-31T02:48:51;21.60;;;17.23;;
18503;SDS011;9381;54.244;10.074;2023-08-31T02:53:52;23.53;;;18.77;;
18503;SDS011;9381;54.244;10.074;2023-08-31T02:58:53;20.27;;;17.87;;
18503;SDS011;9381;54.244;10.074;2023-08-31T03:03:53;19.05;;;15.95;;
18503;SDS011;9381;54.244;10.074;2023-08-31T03:08:53;23.05;;;18.75;;
18503;SDS011;9381;54.244;10.074;2023-08-31T03:13:54;19.83;;;17.75;;
18503;SDS011;9381;54.244;10.074;2023-08-31T03:18:54;21.42;;;18.42;;
18503;SDS011;9381;54.244;10.074;2023-08-31T03:23:54;24.10;;;18.75;;
18503;SDS011;9381;54.244;10.074;2023-08-31T03:28:54;23.13;;;18.38;;
18503;SDS011;9381;54.244;10.074;2023-08-31T03:33:55;22.05;;;18.25;;
18503;SDS011;9381;54.244;10.074;2023-08-31T03:38:55;20.70;;;17.37;;
18503;SDS011;9381;54.244;10.074;2023-08-31T03:43:56;17.35;;;15.55;;
18503;SDS011;9381;54.244;10.074;2023-08-31T03:48:56;19.00;;;16.05;;
18503;SDS011;9381;54.244;10.074;2023-08-31T03:53:56;18.70;;;15.95;;
18503;SDS011;9381;54.244;10.074;2023-08-31T03:58:56;17.27;;;15.03;;
18503;SDS011;9381;54.244;10.074;2023-08-31T04:03:57;17.88;;;15.32;;
18503;SDS011;9381;54.244;10.074;2023-08-31T04:08:57;16.13;;;13.07;;
18503;SDS011;9381;54.244;10.074;2023-08-31T04:13:57;19.10;;;14.13;;
18503;SDS011;9381;54.244;10.074;2023-08-31T04:18:58;16.20;;;14.55;;
18503;SDS011;9381;54.244;10.074;2023-08-31T04:23:58;16.35;;;12.93;;
18503;SDS011;9381;54.244;10.074;2023-08-31T04:29:00;16.83;;;14.10;;
18503;SDS011;9381;54.244;10.074;2023-08-31T04:34:03;16.53;;;13.70;;
18503;SDS011;9381;54.244;10.074;2023-08-31T04:39:04;19.40;;;13.30;;
18503;SDS011;9381;54.244;10.074;2023-08-31T04:44:04;14.90;;;13.20;;
18503;SDS011;9381;54.244;10.074;2023-08-31T04:49:05;18.47;;;13.50;;
18503;SDS011;9381;54.244;10.074;2023-08-31T04:54:05;18.57;;;13.87;;
18503;SDS011;9381;54.244;10.074;2023-08-31T04:59:06;14.50;;;12.83;;
18503;SDS011;9381;54.244;10.074;2023-08-31T05:04:06;15.20;;;12.70;;
18503;SDS011;9381;54.244;10.074;2023-08-31T05:09:06;18.00;;;12.85;;
18503;SDS011;9381;54.244;10.074;2023-08-31T05:14:07;16.10;;;12.70;;
18503;SDS011;9381;54.244;10.074;2023-08-31T05:19:07;13.77;;;12.32;;
18503;SDS011;9381;54.244;10.074;2023-08-31T05:24:08;16.88;;;11.40;;
18503;SDS011;9381;54.244;10.074;2023-08-31T05:29:08;14.98;;;10.27;;
18503;SDS011;9381;54.244;10.074;2023-08-31T05:34:15;13.27;;;10.57;;
18503;SDS011;9381;54.244;10.074;2023-08-31T05:39:17;14.27;;;10.67;;
18503;SDS011;9381;54.244;10.074;2023-08-31T05:44:18;10.93;;;9.73;;
18503;SDS011;9381;54.244;10.074;2023-08-31T05:49:18;10.10;;;9.03;;
18503;SDS011;9381;54.244;10.074;2023-08-31T05:54:18;11.48;;;9.20;;
18503;SDS011;9381;54.244;10.074;2023-08-31T05:59:19;10.77;;;8.90;;
18503;SDS011;9381;54.244;10.074;2023-08-31T06:04:19;14.57;;;9.20;;
18503;SDS011;9381;54.244;10.074;2023-08-31T06:09:20;10.48;;;8.07;;
18503;SDS011;9381;54.244;10.074;2023-08-31T06:14:20;12.63;;;7.80;;
18503;SDS011;9381;54.244;10.074;2023-08-31T06:19:20;9.93;;;7.17;;
18503;SDS011;9381;54.244;10.074;2023-08-31T06:24:21;8.38;;;6.20;;
18503;SDS011;9381;54.244;10.074;2023-08-31T06:29:21;8.00;;;6.43;;
18503;SDS011;9381;54.244;10.074;2023-08-31T06:34:21;8.70;;;6.00;;
18503;SDS011;9381;54.244;10.074;2023-08-31T06:39:21;11.43;;;6.00;;
18503;SDS011;9381;54.244;10.074;2023-08-31T06:44:22;7.27;;;5.80;;
18503;SDS011;9381;54.244;10.074;2023-08-31T06:49:22;9.70;;;5.50;;
18503;SDS011;9381;54.244;10.074;2023-08-31T06:54:23;8.20;;;4.53;;
18503;SDS011;9381;54.244;10.074;2023-08-31T06:59:24;6.10;;;4.28;;
18503;SDS011;9381;54.244;10.074;2023-08-31T07:04:26;8.93;;;4.37;;
18503;SDS011;9381;54.244;10.074;2023-08-31T07:09:27;10.73;;;4.03;;
18503;SDS011;9381;54.244;10.074;2023-08-31T07:14:27;8.45;;;3.60;;
18503;SDS011;9381;54.244;10.074;2023-08-31T07:19:27;5.88;;;3.70;;
18503;SDS011;9381;54.244;10.074;2023-08-31T07:24:28;5.23;;;3.40;;
18503;SDS011;9381;54.244;10.074;2023-08-31T07:29:30;3.60;;;2.87;;
18503;SDS011;9381;54.244;10.074;2023-08-31T07:34:31;4.63;;;2.83;;
18503;SDS011;9381;54.244;10.074;2023-08-31T07:39:31;6.43;;;2.80;;
18503;SDS011;9381;54.244;10.074;2023-08-31T07:44:32;5.60;;;3.00;;
18503;SDS011;9381;54.244;10.074;2023-08-31T07:49:32;4.88;;;2.17;;
18503;SDS011;9381;54.244;10.074;2023-08-31T07:54:33;5.53;;;2.40;;
18503;SDS011;9381;54.244;10.074;2023-08-31T07:59:33;4.10;;;1.70;;
18503;SDS011;9381;54.244;10.074;2023-08-31T08:04:33;3.63;;;1.65;;
18503;SDS011;9381;54.244;10.074;2023-08-31T08:09:34;2.72;;;1.20;;
18503;SDS011;9381;54.244;10.074;2023-08-31T08:14:35;4.80;;;1.90;;
18503;SDS011;9381;54.244;10.074;2023-08-31T08:19:35;3.00;;;1.50;;
18503;SDS011;9381;54.244;10.074;2023-08-31T08:24:35;3.30;;;1.40;;
18503;SDS011;9381;54.244;10.074;2023-08-31T08:29:36;2.67;;;1.23;;
18503;SDS011;9381;54.244;10.074;2023-08-31T08:34:36;5.00;;;1.30;;
18503;SDS011;9381;54.244;10.074;2023-08-31T08:39:36;3.30;;;1.40;;
18503;SDS011;9381;54.244;10.074;2023-08-31T08:44:37;4.70;;;1.70;;
18503;SDS011;9381;54.244;10.074;2023-08-31T08:49:37;4.77;;;1.57;;
18503;SDS011;9381;54.244;10.074;2023-08-31T08:54:38;5.97;;;1.47;;
18503;SDS011;9381;54.244;10.074;2023-08-31T08:59:39;5.70;;;1.50;;
18503;SDS011;9381;54.244;10.074;2023-08-31T09:04:39;4.43;;;1.37;;
18503;SDS011;9381;54.244;10.074;2023-08-31T09:09:49;4.18;;;1.70;;
18503;SDS011;9381;54.244;10.074;2023-08-31T09:15:00;2.93;;;1.30;;
18503;SDS011;9381;54.244;10.074;2023-08-31T09:20:01;5.60;;;1.70;;
18503;SDS011;9381;54.244;10.074;2023-08-31T09:25:04;2.67;;;1.60;;
18503;SDS011;9381;54.244;10.074;2023-08-31T09:30:05;4.23;;;1.60;;
18503;SDS011;9381;54.244;10.074;2023-08-31T09:35:09;4.97;;;1.50;;
18503;SDS011;9381;54.244;10.074;2023-08-31T09:40:11;5.40;;;1.50;;
18503;SDS011;9381;54.244;10.074;2023-08-31T09:45:16;3.80;;;1.60;;
18503;SDS011;9381;54.244;10.074;2023-08-31T09:50:17;3.63;;;1.50;;
18503;SDS011;9381;54.244;10.074;2023-08-31T09:55:18;2.87;;;1.23;;
18503;SDS011;9381;54.244;10.074;2023-08-31T10:00:21;2.87;;;1.27;;
18503;SDS011;9381;54.244;10.074;2023-08-31T10:05:22;4.20;;;1.60;;
18503;SDS011;9381;54.244;10.074;2023-08-31T10:10:23;3.67;;;1.60;;
18503;SDS011;9381;54.244;10.074;2023-08-31T10:15:24;4.33;;;1.63;;
18503;SDS011;9381;54.244;10.074;2023-08-31T10:20:30;3.63;;;1.70;;
18503;SDS011;9381;54.244;10.074;2023-08-31T10:36:19;1.13;;;1.00;;
18503;SDS011;9381;54.244;10.074;2023-08-31T10:41:20;1.67;;;1.20;;
18503;SDS011;9381;54.244;10.074;2023-08-31T10:51:33;3.23;;;1.40;;
18503;SDS011;9381;54.244;10.074;2023-08-31T10:56:33;4.33;;;1.30;;
18503;SDS011;9381;54.244;10.074;2023-08-31T11:01:50;1.23;;;1.00;;
18503;SDS011;9381;54.244;10.074;2023-08-31T11:07:13;1.87;;;1.10;;
18503;SDS011;9381;54.244;10.074;2023-08-31T11:12:17;1.70;;;1.20;;
18503;SDS011;9381;54.244;10.074;2023-08-31T11:17:22;4.90;;;1.17;;
18503;SDS011;9381;54.244;10.074;2023-08-31T11:22:22;1.50;;;1.07;;
18503;SDS011;9381;54.244;10.074;2023-08-31T11:27:22;2.83;;;1.40;;
18503;SDS011;9381;54.244;10.074;2023-08-31T11:32:23;2.37;;;1.10;;
18503;SDS011;9381;54.244;10.074;2023-08-31T11:37:24;3.03;;;1.03;;
18503;SDS011;9381;54.244;10.074;2023-08-31T11:42:26;1.97;;;1.20;;
18503;SDS011;9381;54.244;10.074;2023-08-31T11:47:27;2.63;;;1.40;;
18503;SDS011;9381;54.244;10.074;2023-08-31T11:52:27;3.57;;;1.70;;
18503;SDS011;9381;54.244;10.074;2023-08-31T11:57:28;3.03;;;1.50;;
18503;SDS011;9381;54.244;10.074;2023-08-31T12:02:28;2.90;;;1.10;;
18503;SDS011;9381;54.244;10.074;2023-08-31T12:07:28;2.63;;;1.37;;
18503;SDS011;9381;54.244;10.074;2023-08-31T12:12:29;4.23;;;1.60;;
18503;SDS011;9381;54.244;10.074;2023-08-31T12:17:36;2.47;;;1.00;;
18503;SDS011;9381;54.244;10.074;2023-08-31T12:22:37;3.40;;;1.00;;
18503;SDS011;9381;54.244;10.074;2023-08-31T12:27:38;3.33;;;0.90;;
18503;SDS011;9381;54.244;10.074;2023-08-31T12:32:38;1.63;;;0.70;;
18503;SDS011;9381;54.244;10.074;2023-08-31T12:37:38;1.85;;;0.60;;
18503;SDS011;9381;54.244;10.074;2023-08-31T12:42:39;1.30;;;0.90;;
18503;SDS011;9381;54.244;10.074;2023-08-31T12:47:39;1.10;;;1.00;;
18503;SDS011;9381;54.244;10.074;2023-08-31T12:52:39;1.10;;;1.00;;
18503;SDS011;9381;54.244;10.074;2023-08-31T12:57:46;1.83;;;1.57;;
18503;SDS011;9381;54.244;10.074;2023-08-31T13:02:46;3.33;;;1.90;;
18503;SDS011;9381;54.244;10.074;2023-08-31T13:07:46;1.87;;;1.77;;
18503;SDS011;9381;54.244;10.074;2023-08-31T13:12:47;0.73;;;0.50;;
18503;SDS011;9381;54.244;10.074;2023-08-31T13:17:47;0.60;;;0.40;;
18503;SDS011;9381;54.244;10.074;2023-08-31T13:22:47;1.45;;;0.50;;
18503;SDS011;9381;54.244;10.074;2023-08-31T13:27:47;2.27;;;0.70;;
18503;SDS011;9381;54.244;10.074;2023-08-31T13:32:48;2.90;;;1.00;;
18503;SDS011;9381;54.244;10.074;2023-08-31T13:37:48;0.70;;;0.50;;
18503;SDS011;9381;54.244;10.074;2023-08-31T13:42:53;1.57;;;0.57;;
18503;SDS011;9381;54.244;10.074;2023-08-31T13:47:59;1.17;;;0.63;;
18503;SDS011;9381;54.244;10.074;2023-08-31T13:53:04;1.57;;;0.70;;
18503;SDS011;9381;54.244;10.074;2023-08-31T13:58:05;1.03;;;0.60;;
18503;SDS011;9381;54.244;10.074;2023-08-31T14:03:07;1.93;;;1.50;;
18503;SDS011;9381;54.244;10.074;2023-08-31T14:08:07;3.20;;;1.10;;
18503;SDS011;9381;54.244;10.074;2023-08-31T14:13:10;1.70;;;1.10;;
18503;SDS011;9381;54.244;10.074;2023-08-31T14:18:11;1.07;;;0.90;;
18503;SDS011;9381;54.244;10.074;2023-08-31T14:23:12;2.17;;;1.00;;
18503;SDS011;9381;54.244;10.074;2023-08-31T14:28:13;0.97;;;0.90;;
18503;SDS011;9381;54.244;10.074;2023-08-31T14:33:13;1.63;;;1.38;;
18503;SDS011;9381;54.244;10.074;2023-08-31T14:38:13;1.93;;;1.83;;
18503;SDS011;9381;54.244;10.074;2023-08-31T14:43:20;2.77;;;2.33;;
18503;SDS011;9381;54.244;10.074;2023-08-31T14:48:20;4.47;;;2.20;;
18503;SDS011;9381;54.244;10.074;2023-08-31T14:53:20;5.53;;;2.20;;
18503;SDS011;9381;54.244;10.074;2023-08-31T14:58:23;1.87;;;1.60;;
18503;SDS011;9381;54.244;10.074;2023-08-31T15:03:23;2.00;;;1.20;;
18503;SDS011;9381;54.244;10.074;2023-08-31T15:08:34;3.40;;;1.30;;
18503;SDS011;9381;54.244;10.074;2023-08-31T15:13:37;1.80;;;1.20;;
18503;SDS011;9381;54.244;10.074;2023-08-31T15:18:37;1.25;;;0.95;;
18503;SDS011;9381;54.244;10.074;2023-08-31T15:23:37;3.20;;;1.00;;
18503;SDS011;9381;54.244;10.074;2023-08-31T15:28:38;4.00;;;1.10;;
18503;SDS011;9381;54.244;10.074;2023-08-31T15:33:38;2.83;;;1.13;;
18503;SDS011;9381;54.244;10.074;2023-08-31T15:38:38;1.70;;;1.03;;
18503;SDS011;9381;54.244;10.074;2023-08-31T15:43:39;2.13;;;1.03;;
18503;SDS011;9381;54.244;10.074;2023-08-31T15:48:39;3.73;;;1.00;;
18503;SDS011;9381;54.244;10.074;2023-08-31T15:53:39;2.03;;;1.07;;
18503;SDS011;9381;54.244;10.074;2023-08-31T15:58:40;1.70;;;1.07;;
18503;SDS011;9381;54.244;10.074;2023-08-31T16:03:41;1.43;;;1.20;;
18503;SDS011;9381;54.244;10.074;2023-08-31T16:08:41;4.97;;;1.23;;
18503;SDS011;9381;54.244;10.074;2023-08-31T16:13:42;1.50;;;0.90;;
18503;SDS011;9381;54.244;10.074;2023-08-31T16:18:42;2.77;;;1.30;;
18503;SDS011;9381;54.244;10.074;2023-08-31T16:23:42;3.53;;;1.00;;
18503;SDS011;9381;54.244;10.074;2023-08-31T16:28:43;2.27;;;1.10;;
18503;SDS011;9381;54.244;10.074;2023-08-31T16:33:43;3.28;;;1.40;;
18503;SDS011;9381;54.244;10.074;2023-08-31T16:38:43;3.28;;;1.25;;
18503;SDS011;9381;54.244;10.074;2023-08-31T16:43:44;1.83;;;1.10;;
18503;SDS011;9381;54.244;10.074;2023-08-31T16:48:44;5.45;;;1.25;;
18503;SDS011;9381;54.244;10.074;2023-08-31T16:53:44;2.37;;;1.13;;
18503;SDS011;9381;54.244;10.074;2023-08-31T16:58:44;1.63;;;1.10;;
18503;SDS011;9381;54.244;10.074;2023-08-31T17:03:45;5.07;;;1.30;;
18503;SDS011;9381;54.244;10.074;2023-08-31T17:08:45;4.97;;;1.45;;
18503;SDS011;9381;54.244;10.074;2023-08-31T17:13:45;3.17;;;1.40;;
18503;SDS011;9381;54.244;10.074;2023-08-31T17:18:46;1.90;;;1.30;;
18503;SDS011;9381;54.244;10.074;2023-08-31T17:23:46;2.17;;;1.27;;
18503;SDS011;9381;54.244;10.074;2023-08-31T17:28:46;5.05;;;1.30;;
18503;SDS011;9381;54.244;10.074;2023-08-31T17:33:47;3.40;;;1.40;;
18503;SDS011;9381;54.244;10.074;2023-08-31T17:38:48;4.00;;;1.77;;
18503;SDS011;9381;54.244;10.074;2023-08-31T17:43:48;2.70;;;1.48;;
18503;SDS011;9381;54.244;10.074;2023-08-31T17:48:48;3.17;;;1.73;;
18503;SDS011;9381;54.244;10.074;2023-08-31T17:53:49;1.53;;;1.00;;
18503;SDS011;9381;54.244;10.074;2023-08-31T17:58:49;2.90;;;1.00;;
18503;SDS011;9381;54.244;10.074;2023-08-31T18:03:49;2.35;;;1.10;;
18503;SDS011;9381;54.244;10.074;2023-08-31T18:08:50;1.30;;;1.10;;
18503;SDS011;9381;54.244;10.074;2023-08-31T18:13:50;1.23;;;1.13;;
18503;SDS011;9381;54.244;10.074;2023-08-31T18:18:51;1.63;;;1.10;;
18503;SDS011;9381;54.244;10.074;2023-08-31T18:23:51;3.17;;;1.50;;
18503;SDS011;9381;54.244;10.074;2023-08-31T18:28:51;1.97;;;1.40;;
18503;SDS011;9381;54.244;10.074;2023-08-31T18:33:52;2.23;;;1.30;;
18503;SDS011;9381;54.244;10.074;2023-08-31T18:38:52;3.08;;;1.50;;
18503;SDS011;9381;54.244;10.074;2023-08-31T18:43:52;2.42;;;1.63;;
18503;SDS011;9381;54.244;10.074;2023-08-31T18:48:52;4.47;;;1.90;;
18503;SDS011;9381;54.244;10.074;2023-08-31T18:53:53;4.30;;;1.97;;
18503;SDS011;9381;54.244;10.074;2023-08-31T18:58:53;3.72;;;2.22;;
18503;SDS011;9381;54.244;10.074;2023-08-31T19:03:53;4.28;;;2.75;;
18503;SDS011;9381;54.244;10.074;2023-08-31T19:08:56;5.50;;;2.47;;
18503;SDS011;9381;54.244;10.074;2023-08-31T19:13:57;2.78;;;2.28;;
18503;SDS011;9381;54.244;10.074;2023-08-31T19:18:57;4.93;;;2.03;;
18503;SDS011;9381;54.244;10.074;2023-08-31T19:23:57;4.20;;;2.33;;
18503;SDS011;9381;54.244;10.074;2023-08-31T19:28:59;3.63;;;2.43;;
18503;SDS011;9381;54.244;10.074;2023-08-31T19:33:59;4.13;;;2.03;;
18503;SDS011;9381;54.244;10.074;2023-08-31T19:38:59;3.58;;;2.17;;
18503;SDS011;9381;54.244;10.074;2023-08-31T19:44:00;5.07;;;2.40;;
18503;SDS011;9381;54.244;10.074;2023-08-31T19:49:00;3.17;;;2.20;;
18503;SDS011;9381;54.244;10.074;2023-08-31T19:54:00;6.40;;;2.20;;
18503;SDS011;9381;54.244;10.074;2023-08-31T19:59:04;3.83;;;1.80;;
18503;SDS011;9381;54.244;10.074;2023-08-31T20:04:07;4.50;;;1.90;;
18503;SDS011;9381;54.244;10.074;2023-08-31T20:09:07;4.00;;;1.70;;
18503;SDS011;9381;54.244;10.074;2023-08-31T20:14:09;4.03;;;1.80;;
18503;SDS011;9381;54.244;10.074;2023-08-31T20:19:10;3.07;;;1.53;;
18503;SDS011;9381;54.244;10.074;2023-08-31T20:24:10;4.05;;;1.90;;
18503;SDS011;9381;54.244;10.074;2023-08-31T20:29:11;5.23;;;3.27;;
18503;SDS011;9381;54.244;10.074;2023-08-31T20:34:15;4.97;;;2.33;;
18503;SDS011;9381;54.244;10.074;2023-08-31T20:39:16;7.63;;;2.90;;
18503;SDS011;9381;54.244;10.074;2023-08-31T20:44:16;5.60;;;3.07;;
18503;SDS011;9381;54.244;10.074;2023-08-31T20:49:17;3.75;;;2.60;;
18503;SDS011;9381;54.244;10.074;2023-08-31T20:54:17;6.28;;;2.92;;
18503;SDS011;9381;54.244;10.074;2023-08-31T20:59:17;4.60;;;3.10;;
18503;SDS011;9381;54.244;10.074;2023-08-31T21:04:17;3.93;;;2.60;;
18503;SDS011;9381;54.244;10.074;2023-08-31T21:09:18;5.22;;;2.58;;
18503;SDS011;9381;54.244;10.074;2023-08-31T21:14:18;4.70;;;2.67;;
18503;SDS011;9381;54.244;10.074;2023-08-31T21:19:18;4.65;;;2.60;;
18503;SDS011;9381;54.244;10.074;2023-08-31T21:24:18;3.30;;;2.40;;
18503;SDS011;9381;54.244;10.074;2023-08-31T21:29:19;3.30;;;2.42;;
18503;SDS011;9381;54.244;10.074;2023-08-31T21:34:19;5.87;;;3.13;;
18503;SDS011;9381;54.244;10.074;2023-08-31T21:39:19;4.27;;;2.83;;
18503;SDS011;9381;54.244;10.074;2023-08-31T21:44:20;5.00;;;3.35;;
18503;SDS011;9381;54.244;10.074;2023-08-31T21:49:20;6.20;;;3.58;;
18503;SDS011;9381;54.244;10.074;2023-08-31T21:54:20;5.50;;;3.92;;
18503;SDS011;9381;54.244;10.074;2023-08-31T21:59:21;5.78;;;4.15;;
18503;SDS011;9381;54.244;10.074;2023-08-31T22:04:21;7.43;;;4.75;;
18503;SDS011;9381;54.244;10.074;2023-08-31T22:09:21;8.87;;;4.70;;
18503;SDS011;9381;54.244;10.074;2023-08-31T22:14:22;6.70;;;5.17;;
18503;SDS011;9381;54.244;10.074;2023-08-31T22:19:23;8.63;;;6.13;;
18503;SDS011;9381;54.244;10.074;2023-08-31T22:24:24;12.60;;;6.73;;
18503;SDS011;9381;54.244;10.074;2023-08-31T22:29:24;8.57;;;6.13;;
18503;SDS011;9381;54.244;10.074;2023-08-31T22:34:24;8.33;;;6.27;;
18503;SDS011;9381;54.244;10.074;2023-08-31T22:39:25;7.77;;;6.03;;
18503;SDS011;9381;54.244;10.074;2023-08-31T22:44:25;5.93;;;5.22;;
18503;SDS011;9381;54.244;10.074;2023-08-31T22:49:25;8.48;;;5.43;;
18503;SDS011;9381;54.244;10.074;2023-08-31T22:54:26;7.13;;;5.27;;
18503;SDS011;9381;54.244;10.074;2023-08-31T22:59:26;7.75;;;6.25;;
18503;SDS011;9381;54.244;10.074;2023-08-31T23:04:26;8.55;;;6.40;;
18503;SDS011;9381;54.244;10.074;2023-08-31T23:09:27;11.07;;;6.57;;
18503;SDS011;9381;54.244;10.074;2023-08-31T23:14:28;8.90;;;6.30;;
18503;SDS011;9381;54.244;10.074;2023-08-31T23:19:31;6.97;;;6.00;;
18503;SDS011;9381;54.244;10.074;2023-08-31T23:24:31;6.68;;;5.82;;
18503;SDS011;9381;54.244;10.074;2023-08-31T23:29:31;8.30;;;6.23;;
18503;SDS011;9381;54.244;10.074;2023-08-31T23:34:31;9.40;;;7.70;;
18503;SDS011;9381;54.244;10.074;2023-08-31T23:39:32;10.30;;;7.00;;
18503;SDS011;9381;54.244;10.074;2023-08-31T23:44:32;7.93;;;6.70;;
18503;SDS011;9381;54.244;10.074;2023-08-31T23:49:32;10.25;;;7.13;;
18503;SDS011;9381;54.244;10.074;2023-08-31T23:54:33;7.85;;;6.13;;
18503;SDS011;9381;54.244;10.074;2023-08-31T23:59:33;8.57;;;6.67;;
